Weather  for  Aeroporto Internacional Guararapes (Recife/PE)  -  Brazil    Brazil

27 °C (81 °F)

Current METAR for Aeroporto Internacional Guararapes (Recife/PE) is :

SBRF 210300Z 09005KT 9999 SCT023 27/23 Q1012


This is a report for Aeroporto Internacional Guararapes (Recife/PE) - Brazil.
The report was made a moment ago, at 03:00 UTC .
The wind was blowing at a speed of 2.6 meters per second (5.8 miles per hour) from east (090°).
The temperature was 27 °C (81 °F), with a dew-point at 23 °C (73 °F).
The temperature felt like 30 °C (86 °F).
The atmospheric pressure was 1012 hPa (29.88 inHg).
The relative humidity was 78.8%.
There were scattered clouds at a height of 701 meters (2300 feet).
The overall visibility was greater than 10 kilometers (6.2 miles).


Country :   A   B   C   D   E   F   G   H   I   J   K   L   M   N   O   P   Q   R   S   T   U   V   W   Y   Z


Site Info  |  Disclaimer  |  Credits  |  Privacy
Contact us  |  Add to favorites
© 2013-2018 METARs - All rights reserved